createdAt,value
2023-03-18T00:00:53.433Z,64.90
2023-03-18T00:06:06.528Z,65.10
2023-03-18T00:11:13.035Z,65.40
2023-03-18T00:16:16.861Z,66.00
2023-03-18T00:21:23.219Z,65.50
2023-03-18T00:26:27.671Z,65.60
2023-03-18T00:31:31.521Z,65.60
2023-03-18T00:36:36.434Z,65.70
2023-03-18T00:41:39.868Z,65.70
2023-03-18T00:46:43.593Z,65.80
2023-03-18T00:51:48.207Z,66.00
2023-03-18T00:56:51.634Z,66.00
2023-03-18T01:01:55.048Z,66.30
2023-03-18T01:07:19.463Z,66.40
2023-03-18T01:12:25.677Z,66.60
2023-03-18T01:17:28.946Z,66.70
2023-03-18T01:22:33.794Z,66.80
2023-03-18T01:27:38.046Z,66.80
2023-03-18T01:32:43.936Z,66.70
2023-03-18T01:37:49.728Z,66.70
2023-03-18T01:42:58.769Z,66.70
2023-03-18T01:48:07.543Z,66.80
2023-03-18T01:53:14.913Z,67.00
2023-03-18T01:58:23.455Z,67.10
2023-03-18T02:03:29.407Z,67.20
2023-03-18T02:08:34.122Z,67.40
2023-03-18T02:13:42.809Z,67.50
2023-03-18T02:18:52.467Z,67.50
2023-03-18T02:24:03.435Z,67.60
2023-03-18T02:29:09.748Z,67.70
2023-03-18T02:34:25.853Z,67.70
2023-03-18T02:39:31.519Z,67.90
2023-03-18T02:44:43.012Z,68.00
2023-03-18T02:50:16.631Z,68.20
2023-03-18T02:55:20.778Z,68.40
2023-03-18T03:00:25.729Z,68.60
2023-03-18T03:05:29.477Z,68.70
2023-03-18T03:10:34.245Z,69.00
2023-03-18T03:15:39.919Z,69.20
2023-03-18T03:20:44.179Z,69.30
2023-03-18T03:25:47.506Z,69.40
2023-03-18T03:30:52.392Z,69.60
2023-03-18T03:35:58.121Z,69.60
2023-03-18T03:41:02.259Z,69.80
2023-03-18T03:46:07.495Z,69.90
2023-03-18T03:51:11.155Z,70.00
2023-03-18T03:56:15.658Z,70.10
2023-03-18T04:01:20.737Z,70.10
2023-03-18T04:06:25.239Z,70.10
2023-03-18T04:11:36.312Z,70.30
2023-03-18T04:16:41.060Z,70.50
2023-03-18T04:21:46.213Z,70.50
2023-03-18T04:26:49.974Z,70.50
2023-03-18T04:31:55.008Z,70.60
2023-03-18T04:36:59.571Z,70.60
2023-03-18T04:42:05.726Z,70.60
2023-03-18T04:47:11.082Z,70.60
2023-03-18T04:52:17.856Z,70.70
2023-03-18T04:57:22.141Z,70.70
2023-03-18T05:02:31.357Z,70.80
2023-03-18T05:07:34.688Z,71.00
2023-03-18T05:12:45.146Z,70.90
2023-03-18T05:17:52.972Z,70.90
2023-03-18T05:22:56.663Z,71.00
2023-03-18T05:28:13.644Z,71.10
2023-03-18T05:33:30.082Z,71.20
2023-03-18T05:38:33.888Z,71.30
2023-03-18T05:43:38.726Z,71.30
2023-03-18T05:48:44.033Z,71.40
2023-03-18T05:53:47.768Z,71.60
2023-03-18T05:59:06.477Z,71.60
2023-03-18T06:04:19.604Z,71.80
2023-03-18T06:09:23.383Z,71.90
2023-03-18T06:14:29.496Z,72.10
2023-03-18T06:19:38.158Z,72.20
2023-03-18T06:24:41.568Z,72.30
2023-03-18T06:29:45.531Z,72.40
2023-03-18T06:34:54.585Z,72.40
2023-03-18T06:39:58.294Z,72.40
2023-03-18T06:45:01.815Z,72.30
2023-03-18T06:50:18.675Z,72.10
2023-03-18T06:55:22.103Z,72.00
2023-03-18T07:00:25.959Z,72.10
2023-03-18T07:05:33.111Z,72.40
2023-03-18T07:10:37.065Z,71.90
2023-03-18T07:15:46.580Z,71.70
2023-03-18T07:20:51.421Z,71.50
2023-03-18T07:25:58.840Z,71.30
2023-03-18T07:31:02.733Z,71.30
2023-03-18T07:36:08.577Z,71.20
2023-03-18T07:41:12.655Z,70.90
2023-03-18T07:46:15.975Z,70.70
2023-03-18T07:51:20.621Z,70.50
2023-03-18T07:56:24.315Z,69.90
2023-03-18T08:01:28.855Z,69.50
2023-03-18T08:06:34.452Z,69.00
2023-03-18T08:11:38.214Z,68.50
2023-03-18T08:16:41.917Z,68.40
2023-03-18T08:21:46.706Z,68.50
2023-03-18T08:26:50.016Z,68.60
2023-03-18T08:31:54.587Z,68.70
2023-03-18T08:36:59.316Z,68.50
2023-03-18T08:42:05.270Z,68.50
2023-03-18T08:47:08.928Z,68.30
2023-03-18T08:52:14.115Z,68.40
2023-03-18T08:57:17.376Z,68.30
2023-03-18T09:02:20.712Z,68.20
2023-03-18T09:07:25.342Z,68.10
2023-03-18T09:12:28.758Z,67.90
2023-03-18T09:17:47.276Z,67.80
2023-03-18T09:22:56.145Z,67.40
2023-03-18T09:28:00.428Z,66.70
2023-03-18T09:33:03.688Z,66.30
2023-03-18T09:38:08.342Z,65.80
2023-03-18T09:43:24.607Z,65.50
2023-03-18T09:48:54.930Z,65.00
2023-03-18T09:54:03.561Z,64.40
2023-03-18T09:59:17.153Z,64.10
2023-03-18T10:04:24.960Z,63.90
2023-03-18T10:09:32.192Z,64.40
2023-03-18T10:14:41.310Z,64.10
2023-03-18T10:19:48.231Z,64.30
2023-03-18T10:25:03.501Z,64.00
2023-03-18T10:30:34.199Z,63.80
2023-03-18T10:35:43.420Z,63.50
2023-03-18T10:40:49.403Z,63.50
2023-03-18T10:46:00.831Z,63.10
2023-03-18T10:51:12.023Z,62.60
2023-03-18T10:56:17.357Z,62.30
2023-03-18T11:01:23.327Z,62.00
2023-03-18T11:06:31.979Z,61.90
2023-03-18T11:11:40.592Z,61.80
2023-03-18T11:16:49.552Z,62.00
2023-03-18T11:22:02.477Z,62.80
2023-03-18T11:27:22.929Z,62.90
2023-03-18T11:32:28.937Z,63.00
2023-03-18T11:37:34.200Z,63.00
2023-03-18T11:42:40.495Z,63.10
2023-03-18T11:47:44.948Z,63.00
2023-03-18T11:52:55.018Z,63.20
2023-03-18T11:58:15.814Z,63.40
2023-03-18T12:03:56.797Z,63.50
2023-03-18T12:09:10.756Z,63.40
2023-03-18T12:14:30.285Z,63.20
2023-03-18T12:19:55.188Z,63.40
2023-03-18T12:25:17.053Z,64.20
2023-03-18T12:30:56.325Z,64.40
2023-03-18T12:36:09.762Z,63.90
2023-03-18T12:41:19.983Z,63.90
2023-03-18T12:46:31.026Z,63.90
2023-03-18T12:51:43.818Z,64.00
2023-03-18T12:56:52.904Z,64.20
2023-03-18T13:02:26.769Z,64.20
2023-03-18T13:07:38.945Z,64.10
2023-03-18T13:12:44.964Z,64.30
2023-03-18T13:17:52.665Z,64.10
2023-03-18T13:23:13.996Z,64.20
2023-03-18T13:28:32.028Z,64.30
2023-03-18T13:34:21.577Z,64.30
2023-03-18T13:40:01.340Z,64.40
2023-03-18T13:45:24.703Z,64.50
2023-03-18T13:50:39.500Z,64.40
2023-03-18T13:55:49.807Z,64.20
2023-03-18T14:01:36.477Z,64.20
2023-03-18T14:07:15.437Z,64.20
2023-03-18T14:12:38.404Z,64.30
2023-03-18T14:17:49.538Z,64.30
2023-03-18T14:22:56.145Z,64.00
2023-03-18T14:28:13.429Z,64.00
2023-03-18T14:33:35.892Z,64.10
2023-03-18T14:38:50.185Z,64.10
2023-03-18T14:44:02.324Z,64.00
2023-03-18T14:49:35.662Z,64.00
2023-03-18T14:54:46.080Z,64.50
2023-03-18T14:59:49.423Z,63.90
2023-03-18T15:04:56.006Z,64.10
2023-03-18T15:10:04.480Z,64.30
2023-03-18T15:15:13.911Z,64.20
2023-03-18T15:20:18.211Z,64.30
2023-03-18T15:25:24.514Z,64.60
2023-03-18T15:30:30.891Z,64.90
2023-03-18T15:35:35.236Z,65.10
2023-03-18T15:40:47.971Z,65.00
2023-03-18T15:45:56.612Z,64.80
2023-03-18T15:51:01.834Z,64.60
2023-03-18T15:56:14.562Z,64.50
2023-03-18T16:01:20.115Z,64.70
2023-03-18T16:06:24.840Z,65.10
2023-03-18T16:11:30.010Z,65.30
2023-03-18T16:16:34.673Z,65.60
2023-03-18T16:21:38.363Z,65.80
2023-03-18T16:26:43.495Z,66.20
2023-03-18T16:31:47.374Z,66.40
2023-03-18T16:36:52.355Z,66.80
2023-03-18T16:41:57.857Z,67.00
2023-03-18T16:47:02.754Z,67.20
2023-03-18T16:52:07.111Z,67.70
2023-03-18T16:57:18.175Z,68.00
2023-03-18T17:02:33.898Z,68.40
2023-03-18T17:07:37.733Z,68.90
2023-03-18T17:12:50.620Z,69.20
2023-03-18T17:17:58.085Z,69.60
2023-03-18T17:23:02.345Z,70.10
2023-03-18T17:28:08.591Z,70.40
2023-03-18T17:33:22.765Z,70.90
2023-03-18T17:38:26.236Z,71.50
2023-03-18T17:43:33.288Z,72.20
2023-03-18T17:48:38.450Z,72.50
2023-03-18T17:53:43.963Z,72.90
2023-03-18T17:58:51.348Z,73.20
2023-03-18T18:03:55.960Z,73.60
2023-03-18T18:09:00.968Z,73.80
2023-03-18T18:14:15.937Z,74.10
2023-03-18T18:19:19.911Z,74.60
2023-03-18T18:24:25.579Z,74.80
2023-03-18T18:29:30.570Z,75.00
2023-03-18T18:34:34.340Z,75.10
2023-03-18T18:39:38.095Z,75.30
2023-03-18T18:44:43.719Z,75.60
2023-03-18T18:49:47.941Z,75.80
2023-03-18T18:54:51.600Z,76.00
2023-03-18T18:59:57.322Z,76.00
2023-03-18T19:05:02.368Z,76.30
2023-03-18T19:10:06.818Z,76.40
2023-03-18T19:15:15.381Z,76.50
2023-03-18T19:20:29.740Z,76.70
2023-03-18T19:25:34.551Z,77.10
2023-03-18T19:30:39.935Z,77.20
2023-03-18T19:35:44.181Z,77.40
2023-03-18T19:40:50.492Z,77.80
2023-03-18T19:45:55.728Z,77.90
2023-03-18T19:50:59.407Z,77.80
2023-03-18T19:56:06.314Z,77.60
2023-03-18T20:01:11.431Z,77.50
2023-03-18T20:06:15.182Z,77.60
2023-03-18T20:11:21.224Z,77.30
2023-03-18T20:16:28.454Z,77.00
2023-03-18T20:21:32.408Z,76.70
2023-03-18T20:26:36.968Z,76.60
2023-03-18T20:31:42.108Z,76.80
2023-03-18T20:36:45.951Z,76.90
2023-03-18T20:41:50.104Z,77.20
2023-03-18T20:46:55.273Z,77.20
2023-03-18T20:51:59.088Z,77.40
2023-03-18T20:57:03.392Z,77.60
2023-03-18T21:02:27.528Z,77.60
2023-03-18T21:07:31.175Z,77.90
2023-03-18T21:12:35.177Z,78.10
2023-03-18T21:17:40.745Z,78.30
2023-03-18T21:22:44.717Z,78.70
2023-03-18T21:27:48.645Z,78.90
2023-03-18T21:32:53.374Z,79.20
2023-03-18T21:37:57.221Z,79.60
2023-03-18T21:43:00.572Z,79.70
2023-03-18T21:48:07.308Z,79.80
2023-03-18T21:53:14.651Z,80.10
2023-03-18T21:58:19.948Z,80.40
2023-03-18T22:03:28.618Z,80.60
2023-03-18T22:08:31.909Z,80.90
2023-03-18T22:13:36.032Z,81.30
2023-03-18T22:18:40.884Z,81.60
2023-03-18T22:23:44.569Z,81.90
2023-03-18T22:28:48.692Z,82.20
2023-03-18T22:33:53.748Z,82.70
2023-03-18T22:38:57.065Z,82.90
2023-03-18T22:44:02.754Z,83.10
2023-03-18T22:49:08.612Z,83.40
2023-03-18T22:54:19.291Z,83.60
2023-03-18T22:59:22.907Z,83.80
2023-03-18T23:04:30.594Z,84.10
2023-03-18T23:09:41.557Z,84.40
2023-03-18T23:14:48.563Z,84.60
2023-03-18T23:19:53.991Z,84.90
2023-03-18T23:24:58.288Z,85.00
2023-03-18T23:30:02.054Z,85.20
2023-03-18T23:35:08.755Z,85.10
2023-03-18T23:40:12.834Z,85.20
2023-03-18T23:45:16.908Z,85.20
2023-03-18T23:50:21.905Z,85.20
2023-03-18T23:55:40.478Z,85.80
